Queen Anne, Maryland
Current Conditions -  °F | °C
As of 10:50 AM on Monday 22 Dec 2014 (Local Time) from KESN Reporting Station
Light Rain Light Rain  
Wind Chill: 32°   Ceiling: 4600
Heat Index: 37°   Visibility: 10mi
Dew Point: 34°   Wind: 7mph
Humidity: 87%   Direction: 80°E
Pressure: 30.31"   Gusts: NA
Location:  38.92°N, 75.96°W
Report Text: KESN 221550Z 08006KT 10SM -RA SCT011 BKN046 03/01 A3031
Loading
Personal Weather Stations






























Interactive Weather Map New forecast layout! Learn more

10-Day Weather Forecast

Advertisements
Track Severe Weather on mobile